sensor_id;sensor_type;location;lat;lon;timestamp;pressure;altitude;pressure_sealevel;temperature;humidity
14383;BME280;7275;50.328;8.720;2023-03-04T00:00:55;100494.84;;;7.87;33.29
14383;BME280;7275;50.328;8.720;2023-03-04T00:03:23;100496.63;;;7.88;33.50
14383;BME280;7275;50.328;8.720;2023-03-04T00:05:51;100495.69;;;7.92;33.87
14383;BME280;7275;50.328;8.720;2023-03-04T00:08:19;100497.41;;;7.93;33.48
14383;BME280;7275;50.328;8.720;2023-03-04T00:10:46;100496.53;;;7.93;33.42
14383;BME280;7275;50.328;8.720;2023-03-04T00:13:14;100504.41;;;7.93;33.44
14383;BME280;7275;50.328;8.720;2023-03-04T00:15:42;100496.56;;;7.91;33.43
14383;BME280;7275;50.328;8.720;2023-03-04T00:18:10;100501.88;;;7.88;33.44
14383;BME280;7275;50.328;8.720;2023-03-04T00:20:37;100498.38;;;7.86;33.53
14383;BME280;7275;50.328;8.720;2023-03-04T00:23:06;100500.13;;;7.87;33.50
14383;BME280;7275;50.328;8.720;2023-03-04T00:25:33;100494.84;;;7.87;33.38
14383;BME280;7275;50.328;8.720;2023-03-04T00:28:01;100493.03;;;7.91;33.57
14383;BME280;7275;50.328;8.720;2023-03-04T00:30:28;100498.25;;;7.95;33.42
14383;BME280;7275;50.328;8.720;2023-03-04T00:32:56;100492.97;;;7.98;33.45
14383;BME280;7275;50.328;8.720;2023-03-04T00:35:23;100494.63;;;8.04;33.49
14383;BME280;7275;50.328;8.720;2023-03-04T00:37:51;100485.78;;;8.08;33.34
14383;BME280;7275;50.328;8.720;2023-03-04T00:40:20;100493.66;;;8.11;33.71
14383;BME280;7275;50.328;8.720;2023-03-04T00:42:48;100499.72;;;8.15;33.47
14383;BME280;7275;50.328;8.720;2023-03-04T00:45:15;100491.81;;;8.18;33.43
14383;BME280;7275;50.328;8.720;2023-03-04T00:47:43;100492.63;;;8.21;33.47
14383;BME280;7275;50.328;8.720;2023-03-04T00:50:11;100496.97;;;8.25;33.33
14383;BME280;7275;50.328;8.720;2023-03-04T00:52:38;100496.94;;;8.27;34.02
14383;BME280;7275;50.328;8.720;2023-03-04T00:55:07;100486.44;;;8.24;33.61
14383;BME280;7275;50.328;8.720;2023-03-04T00:57:36;100481.19;;;8.25;33.61
14383;BME280;7275;50.328;8.720;2023-03-04T01:00:05;100483.78;;;8.27;33.81
14383;BME280;7275;50.328;8.720;2023-03-04T01:02:32;100475.88;;;8.27;33.85
14383;BME280;7275;50.328;8.720;2023-03-04T01:05:00;100468.84;;;8.27;33.94
14383;BME280;7275;50.328;8.720;2023-03-04T01:07:27;100471.47;;;8.27;34.01
14383;BME280;7275;50.328;8.720;2023-03-04T01:09:55;100474.16;;;8.26;34.00
14383;BME280;7275;50.328;8.720;2023-03-04T01:12:22;100462.75;;;8.24;34.34
14383;BME280;7275;50.328;8.720;2023-03-04T01:14:51;100464.50;;;8.23;34.06
14383;BME280;7275;50.328;8.720;2023-03-04T01:17:19;100462.75;;;8.22;34.05
14383;BME280;7275;50.328;8.720;2023-03-04T01:19:47;100456.59;;;8.23;34.23
14383;BME280;7275;50.328;8.720;2023-03-04T01:22:14;100459.22;;;8.23;34.06
14383;BME280;7275;50.328;8.720;2023-03-04T01:24:44;100464.53;;;8.22;34.19
14383;BME280;7275;50.328;8.720;2023-03-04T01:27:11;100459.25;;;8.22;34.21
14383;BME280;7275;50.328;8.720;2023-03-04T01:29:39;100458.31;;;8.24;34.34
14383;BME280;7275;50.328;8.720;2023-03-04T01:32:08;100449.56;;;8.25;34.43
14383;BME280;7275;50.328;8.720;2023-03-04T01:34:35;100444.19;;;8.31;34.31
14383;BME280;7275;50.328;8.720;2023-03-04T01:37:03;100452.00;;;8.37;34.36
14383;BME280;7275;50.328;8.720;2023-03-04T01:39:31;100446.63;;;8.45;34.41
14383;BME280;7275;50.328;8.720;2023-03-04T01:41:58;100445.59;;;8.52;34.40
14383;BME280;7275;50.328;8.720;2023-03-04T01:44:26;100439.34;;;8.57;34.51
14383;BME280;7275;50.328;8.720;2023-03-04T01:46:54;100441.00;;;8.64;34.40
14383;BME280;7275;50.328;8.720;2023-03-04T01:49:23;100433.88;;;8.69;34.61
14383;BME280;7275;50.328;8.720;2023-03-04T01:51:53;100421.47;;;8.74;34.58
14383;BME280;7275;50.328;8.720;2023-03-04T01:54:21;100421.34;;;8.82;34.58
14383;BME280;7275;50.328;8.720;2023-03-04T01:56:50;100417.72;;;8.88;34.32
14383;BME280;7275;50.328;8.720;2023-03-04T01:59:19;100413.19;;;8.94;34.38
14383;BME280;7275;50.328;8.720;2023-03-04T02:01:49;100409.53;;;9.01;34.36
14383;BME280;7275;50.328;8.720;2023-03-04T02:04:20;100409.44;;;9.06;34.42
14383;BME280;7275;50.328;8.720;2023-03-04T02:06:50;100407.56;;;9.12;34.27
14383;BME280;7275;50.328;8.720;2023-03-04T02:09:18;100399.59;;;9.14;34.08
14383;BME280;7275;50.328;8.720;2023-03-04T02:11:48;100401.28;;;9.19;34.10
14383;BME280;7275;50.328;8.720;2023-03-04T02:14:16;100402.94;;;9.23;34.09
14383;BME280;7275;50.328;8.720;2023-03-04T02:16:44;100398.47;;;9.27;34.34
14383;BME280;7275;50.328;8.720;2023-03-04T02:19:15;100395.78;;;9.30;34.23
14383;BME280;7275;50.328;8.720;2023-03-04T02:21:45;100397.41;;;9.35;34.10
14383;BME280;7275;50.328;8.720;2023-03-04T02:24:17;100401.72;;;9.39;34.50
14383;BME280;7275;50.328;8.720;2023-03-04T02:26:47;100392.00;;;9.41;34.25
14383;BME280;7275;50.328;8.720;2023-03-04T02:29:16;100389.31;;;9.43;34.25
14383;BME280;7275;50.328;8.720;2023-03-04T02:31:45;100393.69;;;9.44;34.26
14383;BME280;7275;50.328;8.720;2023-03-04T02:34:15;100385.78;;;9.44;34.37
14383;BME280;7275;50.328;8.720;2023-03-04T02:36:44;100390.19;;;9.43;34.34
14383;BME280;7275;50.328;8.720;2023-03-04T02:39:21;100384.03;;;9.44;34.47
14383;BME280;7275;50.328;8.720;2023-03-04T02:41:53;100386.63;;;9.46;34.46
14383;BME280;7275;50.328;8.720;2023-03-04T02:44:23;100387.47;;;9.48;34.28
14383;BME280;7275;50.328;8.720;2023-03-04T02:46:51;100386.53;;;9.50;34.28
14383;BME280;7275;50.328;8.720;2023-03-04T02:49:21;100386.47;;;9.52;34.25
14383;BME280;7275;50.328;8.720;2023-03-04T02:51:50;100379.34;;;9.55;34.47
14383;BME280;7275;50.328;8.720;2023-03-04T02:54:20;100376.66;;;9.58;34.14
14383;BME280;7275;50.328;8.720;2023-03-04T02:56:49;100377.44;;;9.62;34.16
14383;BME280;7275;50.328;8.720;2023-03-04T02:59:19;100372.06;;;9.66;34.27
14383;BME280;7275;50.328;8.720;2023-03-04T03:01:47;100370.28;;;9.68;34.32
14383;BME280;7275;50.328;8.720;2023-03-04T03:04:16;100369.38;;;9.70;34.18
14383;BME280;7275;50.328;8.720;2023-03-04T03:06:44;100376.31;;;9.74;34.08
14383;BME280;7275;50.328;8.720;2023-03-04T03:09:12;100383.31;;;9.76;34.13
14383;BME280;7275;50.328;8.720;2023-03-04T03:11:39;100379.72;;;9.79;34.04
14383;BME280;7275;50.328;8.720;2023-03-04T03:14:07;100377.94;;;9.79;34.22
14383;BME280;7275;50.328;8.720;2023-03-04T03:16:36;100368.22;;;9.81;34.42
14383;BME280;7275;50.328;8.720;2023-03-04T03:19:04;100376.06;;;9.84;34.15
14383;BME280;7275;50.328;8.720;2023-03-04T03:21:31;100374.22;;;9.88;34.28
14383;BME280;7275;50.328;8.720;2023-03-04T03:23:59;100367.97;;;9.92;34.00
14383;BME280;7275;50.328;8.720;2023-03-04T03:26:26;100364.34;;;9.96;34.33
14383;BME280;7275;50.328;8.720;2023-03-04T03:28:54;100366.09;;;9.97;34.15
14383;BME280;7275;50.328;8.720;2023-03-04T03:31:21;100363.41;;;9.98;34.48
14383;BME280;7275;50.328;8.720;2023-03-04T03:33:50;100370.38;;;10.01;34.05
14383;BME280;7275;50.328;8.720;2023-03-04T03:36:18;100364.22;;;10.00;34.25
14383;BME280;7275;50.328;8.720;2023-03-04T03:38:45;100359.81;;;10.01;34.10
14383;BME280;7275;50.328;8.720;2023-03-04T03:41:13;100369.47;;;10.03;34.35
14383;BME280;7275;50.328;8.720;2023-03-04T03:43:40;100369.47;;;10.03;34.25
14383;BME280;7275;50.328;8.720;2023-03-04T03:46:08;100370.28;;;10.04;34.16
14383;BME280;7275;50.328;8.720;2023-03-04T03:48:36;100362.38;;;10.04;34.33
14383;BME280;7275;50.328;8.720;2023-03-04T03:51:04;100367.66;;;10.05;34.44
14383;BME280;7275;50.328;8.720;2023-03-04T03:53:32;100359.72;;;10.04;34.21
14383;BME280;7275;50.328;8.720;2023-03-04T03:55:59;100370.34;;;10.02;34.17
14383;BME280;7275;50.328;8.720;2023-03-04T03:58:27;100353.63;;;10.02;34.31
14383;BME280;7275;50.328;8.720;2023-03-04T04:00:54;100354.50;;;10.02;34.66
14383;BME280;7275;50.328;8.720;2023-03-04T04:03:24;100354.50;;;10.02;34.23
14383;BME280;7275;50.328;8.720;2023-03-04T04:05:51;100357.13;;;10.02;34.33
14383;BME280;7275;50.328;8.720;2023-03-04T04:08:20;100353.63;;;10.02;34.42
14383;BME280;7275;50.328;8.720;2023-03-04T04:10:48;100351.91;;;10.01;34.69
14383;BME280;7275;50.328;8.720;2023-03-04T04:13:15;100357.13;;;10.02;34.37
14383;BME280;7275;50.328;8.720;2023-03-04T04:15:43;100350.97;;;10.03;34.62
14383;BME280;7275;50.328;8.720;2023-03-04T04:18:10;100357.13;;;10.02;34.46
14383;BME280;7275;50.328;8.720;2023-03-04T04:20:38;100360.66;;;10.01;34.82
14383;BME280;7275;50.328;8.720;2023-03-04T04:23:05;100358.06;;;10.00;34.72
14383;BME280;7275;50.328;8.720;2023-03-04T04:25:34;100354.50;;;10.02;34.54
14383;BME280;7275;50.328;8.720;2023-03-04T04:28:02;100343.03;;;10.03;34.63
14383;BME280;7275;50.328;8.720;2023-03-04T04:30:29;100349.16;;;10.04;34.62
14383;BME280;7275;50.328;8.720;2023-03-04T04:32:57;100342.16;;;10.03;34.79
14383;BME280;7275;50.328;8.720;2023-03-04T04:35:27;100337.75;;;10.03;34.94
14383;BME280;7275;50.328;8.720;2023-03-04T04:37:54;100344.69;;;10.07;34.71
14383;BME280;7275;50.328;8.720;2023-03-04T04:40:22;100338.47;;;10.11;34.69
14383;BME280;7275;50.328;8.720;2023-03-04T04:42:51;100340.13;;;10.14;34.62
14383;BME280;7275;50.328;8.720;2023-03-04T04:45:18;100345.34;;;10.17;34.60
14383;BME280;7275;50.328;8.720;2023-03-04T04:47:46;100340.94;;;10.17;34.55
14383;BME280;7275;50.328;8.720;2023-03-04T04:50:13;100341.72;;;10.21;34.81
14383;BME280;7275;50.328;8.720;2023-03-04T04:52:41;100332.91;;;10.22;34.44
14383;BME280;7275;50.328;8.720;2023-03-04T04:55:09;100335.50;;;10.23;34.71
14383;BME280;7275;50.328;8.720;2023-03-04T04:57:37;100334.56;;;10.24;34.54
14383;BME280;7275;50.328;8.720;2023-03-04T05:00:08;100331.88;;;10.27;34.33
14383;BME280;7275;50.328;8.720;2023-03-04T05:02:36;100345.91;;;10.29;34.52
14383;BME280;7275;50.328;8.720;2023-03-04T05:05:05;100336.16;;;10.31;34.46
14383;BME280;7275;50.328;8.720;2023-03-04T05:07:35;100337.09;;;10.30;34.83
14383;BME280;7275;50.328;8.720;2023-03-04T05:10:03;100323.00;;;10.30;34.64
14383;BME280;7275;50.328;8.720;2023-03-04T05:12:31;100330.88;;;10.31;34.52
14383;BME280;7275;50.328;8.720;2023-03-04T05:14:59;100337.88;;;10.34;34.61
14383;BME280;7275;50.328;8.720;2023-03-04T05:17:27;100335.19;;;10.35;34.58
14383;BME280;7275;50.328;8.720;2023-03-04T05:19:55;100336.94;;;10.35;34.45
14383;BME280;7275;50.328;8.720;2023-03-04T05:22:22;100337.88;;;10.34;34.51
14383;BME280;7275;50.328;8.720;2023-03-04T05:24:50;100346.69;;;10.34;34.56
14383;BME280;7275;50.328;8.720;2023-03-04T05:27:17;100341.34;;;10.36;34.70
14383;BME280;7275;50.328;8.720;2023-03-04T05:29:45;100339.53;;;10.38;34.72
14383;BME280;7275;50.328;8.720;2023-03-04T05:32:12;100336.84;;;10.39;34.22
14383;BME280;7275;50.328;8.720;2023-03-04T05:34:41;100337.72;;;10.40;34.80
14383;BME280;7275;50.328;8.720;2023-03-04T05:37:09;100335.06;;;10.40;34.25
14383;BME280;7275;50.328;8.720;2023-03-04T05:39:36;100333.28;;;10.40;34.65
14383;BME280;7275;50.328;8.720;2023-03-04T05:42:04;100342.06;;;10.42;34.37
14383;BME280;7275;50.328;8.720;2023-03-04T05:44:31;100339.41;;;10.42;34.54
14383;BME280;7275;50.328;8.720;2023-03-04T05:46:59;100337.59;;;10.44;34.70
14383;BME280;7275;50.328;8.720;2023-03-04T05:49:26;100342.88;;;10.44;34.42
14383;BME280;7275;50.328;8.720;2023-03-04T05:51:55;100336.66;;;10.47;34.76
14383;BME280;7275;50.328;8.720;2023-03-04T05:54:23;100342.81;;;10.46;34.59
14383;BME280;7275;50.328;8.720;2023-03-04T05:56:50;100349.88;;;10.45;34.54
14383;BME280;7275;50.328;8.720;2023-03-04T05:59:18;100343.75;;;10.43;34.46
14383;BME280;7275;50.328;8.720;2023-03-04T06:01:46;100339.47;;;10.39;34.74
14383;BME280;7275;50.328;8.720;2023-03-04T06:04:14;100348.31;;;10.38;34.69
14383;BME280;7275;50.328;8.720;2023-03-04T06:06:42;100351.91;;;10.36;34.35
14383;BME280;7275;50.328;8.720;2023-03-04T06:09:13;100351.09;;;10.34;34.61
14383;BME280;7275;50.328;8.720;2023-03-04T06:11:41;100356.47;;;10.29;34.51
14383;BME280;7275;50.328;8.720;2023-03-04T06:14:08;100354.72;;;10.30;34.65
14383;BME280;7275;50.328;8.720;2023-03-04T06:16:36;100364.47;;;10.28;34.53
14383;BME280;7275;50.328;8.720;2023-03-04T06:19:04;100363.59;;;10.27;34.64
14383;BME280;7275;50.328;8.720;2023-03-04T06:21:31;100361.81;;;10.26;34.92
14383;BME280;7275;50.328;8.720;2023-03-04T06:23:59;100374.16;;;10.27;34.53
14383;BME280;7275;50.328;8.720;2023-03-04T06:26:28;100374.97;;;10.29;34.66
14383;BME280;7275;50.328;8.720;2023-03-04T06:28:55;100376.72;;;10.30;34.65
14383;BME280;7275;50.328;8.720;2023-03-04T06:31:23;100379.31;;;10.32;34.87
14383;BME280;7275;50.328;8.720;2023-03-04T06:33:50;100374.94;;;10.31;35.08
14383;BME280;7275;50.328;8.720;2023-03-04T06:36:18;100382.00;;;10.30;34.86
14383;BME280;7275;50.328;8.720;2023-03-04T06:38:45;100374.91;;;10.32;34.73
14383;BME280;7275;50.328;8.720;2023-03-04T06:41:13;100377.47;;;10.35;34.79
14383;BME280;7275;50.328;8.720;2023-03-04T06:43:42;100381.88;;;10.35;34.90
14383;BME280;7275;50.328;8.720;2023-03-04T06:46:10;100375.69;;;10.36;34.82
14383;BME280;7275;50.328;8.720;2023-03-04T06:48:37;100383.53;;;10.39;34.63
14383;BME280;7275;50.328;8.720;2023-03-04T06:51:06;100389.63;;;10.41;34.59
14383;BME280;7275;50.328;8.720;2023-03-04T06:53:34;100393.09;;;10.44;34.65
14383;BME280;7275;50.328;8.720;2023-03-04T06:56:01;100385.13;;;10.46;34.76
14383;BME280;7275;50.328;8.720;2023-03-04T06:58:29;100392.09;;;10.49;35.12
14383;BME280;7275;50.328;8.720;2023-03-04T07:01:09;100394.69;;;10.50;34.66
14383;BME280;7275;50.328;8.720;2023-03-04T07:03:37;100386.72;;;10.52;34.69
14383;BME280;7275;50.328;8.720;2023-03-04T07:06:04;100392.81;;;10.55;35.09
14383;BME280;7275;50.328;8.720;2023-03-04T07:08:32;100395.34;;;10.60;35.01
14383;BME280;7275;50.328;8.720;2023-03-04T07:11:00;100395.19;;;10.66;34.70
14383;BME280;7275;50.328;8.720;2023-03-04T07:13:27;100395.03;;;10.72;34.67
14383;BME280;7275;50.328;8.720;2023-03-04T07:15:55;100394.03;;;10.76;34.91
14383;BME280;7275;50.328;8.720;2023-03-04T07:18:24;100397.50;;;10.78;34.75
14383;BME280;7275;50.328;8.720;2023-03-04T07:20:51;100404.47;;;10.80;35.11
14383;BME280;7275;50.328;8.720;2023-03-04T07:23:19;100400.84;;;10.84;34.84
14383;BME280;7275;50.328;8.720;2023-03-04T07:25:48;100413.94;;;10.89;34.94
14383;BME280;7275;50.328;8.720;2023-03-04T07:28:16;100412.97;;;10.91;35.16
14383;BME280;7275;50.328;8.720;2023-03-04T07:30:43;100418.97;;;10.98;35.00
14383;BME280;7275;50.328;8.720;2023-03-04T07:33:11;100416.28;;;10.99;34.82
14383;BME280;7275;50.328;8.720;2023-03-04T07:35:40;100418.78;;;11.05;34.91
14383;BME280;7275;50.328;8.720;2023-03-04T07:38:08;100420.44;;;11.08;34.62
14383;BME280;7275;50.328;8.720;2023-03-04T07:40:36;100412.50;;;11.09;34.69
14383;BME280;7275;50.328;8.720;2023-03-04T07:43:04;100415.91;;;11.13;34.53
14383;BME280;7275;50.328;8.720;2023-03-04T07:45:31;100414.13;;;11.13;34.60
14383;BME280;7275;50.328;8.720;2023-03-04T07:47:59;100412.25;;;11.17;34.93
14383;BME280;7275;50.328;8.720;2023-03-04T07:50:26;100426.25;;;11.22;34.60
14383;BME280;7275;50.328;8.720;2023-03-04T07:52:55;100413.72;;;11.27;34.47
14383;BME280;7275;50.328;8.720;2023-03-04T07:55:23;100418.91;;;11.32;34.71
14383;BME280;7275;50.328;8.720;2023-03-04T07:57:50;100421.47;;;11.35;34.70
14383;BME280;7275;50.328;8.720;2023-03-04T08:00:19;100416.00;;;11.39;34.58
14383;BME280;7275;50.328;8.720;2023-03-04T08:02:46;100422.09;;;11.43;34.86
14383;BME280;7275;50.328;8.720;2023-03-04T08:05:14;100412.28;;;11.46;34.41
14383;BME280;7275;50.328;8.720;2023-03-04T08:07:42;100422.81;;;11.49;34.81
14383;BME280;7275;50.328;8.720;2023-03-04T08:10:11;100416.56;;;11.50;34.85
14383;BME280;7275;50.328;8.720;2023-03-04T08:12:39;100413.03;;;11.51;34.73
14383;BME280;7275;50.328;8.720;2023-03-04T08:15:07;100416.44;;;11.55;34.63
14383;BME280;7275;50.328;8.720;2023-03-04T08:17:35;100417.28;;;11.57;34.56
14383;BME280;7275;50.328;8.720;2023-03-04T08:20:03;100418.00;;;11.62;34.61
14383;BME280;7275;50.328;8.720;2023-03-04T08:22:30;100415.16;;;11.69;34.53
14383;BME280;7275;50.328;8.720;2023-03-04T08:24:58;100411.56;;;11.72;34.37
14383;BME280;7275;50.328;8.720;2023-03-04T08:27:27;100414.09;;;11.75;34.46
14383;BME280;7275;50.328;8.720;2023-03-04T08:29:54;100415.72;;;11.79;34.70
14383;BME280;7275;50.328;8.720;2023-03-04T08:32:22;100411.22;;;11.82;34.36
14383;BME280;7275;50.328;8.720;2023-03-04T08:34:49;100422.53;;;11.87;34.60
14383;BME280;7275;50.328;8.720;2023-03-04T08:37:17;100414.56;;;11.89;34.67
14383;BME280;7275;50.328;8.720;2023-03-04T08:39:44;100420.63;;;11.92;34.39
14383;BME280;7275;50.328;8.720;2023-03-04T08:42:12;100422.19;;;11.98;34.63
14383;BME280;7275;50.328;8.720;2023-03-04T08:44:41;100425.59;;;12.01;34.64
14383;BME280;7275;50.328;8.720;2023-03-04T08:47:08;100426.47;;;12.02;34.39
14383;BME280;7275;50.328;8.720;2023-03-04T08:49:36;100426.41;;;12.05;34.27
14383;BME280;7275;50.328;8.720;2023-03-04T08:52:03;100426.25;;;12.10;34.26
14383;BME280;7275;50.328;8.720;2023-03-04T08:54:31;100420.94;;;12.10;34.50
14383;BME280;7275;50.328;8.720;2023-03-04T08:56:59;100425.31;;;12.11;34.51
14383;BME280;7275;50.328;8.720;2023-03-04T08:59:26;100420.78;;;12.14;34.55
14383;BME280;7275;50.328;8.720;2023-03-04T09:01:55;100425.94;;;12.19;34.51
14383;BME280;7275;50.328;8.720;2023-03-04T09:04:22;100431.91;;;12.25;34.45
14383;BME280;7275;50.328;8.720;2023-03-04T09:06:50;100417.69;;;12.28;34.24
14383;BME280;7275;50.328;8.720;2023-03-04T09:09:19;100422.03;;;12.30;34.24
14383;BME280;7275;50.328;8.720;2023-03-04T09:11:46;100419.28;;;12.33;34.47
14383;BME280;7275;50.328;8.720;2023-03-04T09:14:14;100419.13;;;12.38;34.22
14383;BME280;7275;50.328;8.720;2023-03-04T09:16:41;100428.66;;;12.43;34.51
14383;BME280;7275;50.328;8.720;2023-03-04T09:19:10;100424.13;;;12.47;34.39
14383;BME280;7275;50.328;8.720;2023-03-04T09:21:38;100417.91;;;12.48;34.09
14383;BME280;7275;50.328;8.720;2023-03-04T09:24:05;100419.66;;;12.49;34.10
14383;BME280;7275;50.328;8.720;2023-03-04T09:26:33;100423.19;;;12.49;34.33
14383;BME280;7275;50.328;8.720;2023-03-04T09:29:02;100419.53;;;12.52;34.20
14383;BME280;7275;50.328;8.720;2023-03-04T09:31:29;100415.00;;;12.55;34.17
14383;BME280;7275;50.328;8.720;2023-03-04T09:33:58;100422.81;;;12.60;34.45
14383;BME280;7275;50.328;8.720;2023-03-04T09:36:27;100423.50;;;12.65;34.27
14383;BME280;7275;50.328;8.720;2023-03-04T09:38:58;100419.75;;;12.70;34.04
14383;BME280;7275;50.328;8.720;2023-03-04T09:41:33;100421.41;;;12.74;34.41
14383;BME280;7275;50.328;8.720;2023-03-04T09:44:05;100412.38;;;12.80;34.06
14383;BME280;7275;50.328;8.720;2023-03-04T09:46:36;100413.84;;;12.89;34.19
14383;BME280;7275;50.328;8.720;2023-03-04T09:49:05;100420.63;;;12.97;34.13
14383;BME280;7275;50.328;8.720;2023-03-04T09:51:44;100407.03;;;13.06;34.31
14383;BME280;7275;50.328;8.720;2023-03-04T09:54:18;100408.47;;;13.15;34.16
14383;BME280;7275;50.328;8.720;2023-03-04T09:56:50;100409.19;;;13.20;34.08
14383;BME280;7275;50.328;8.720;2023-03-04T09:59:23;100403.53;;;13.29;34.41
14383;BME280;7275;50.328;8.720;2023-03-04T10:01:53;100399.72;;;13.36;34.06
14383;BME280;7275;50.328;8.720;2023-03-04T10:04:29;100401.28;;;13.41;33.88
14383;BME280;7275;50.328;8.720;2023-03-04T10:07:00;100402.72;;;13.50;33.99
14383;BME280;7275;50.328;8.720;2023-03-04T10:09:35;100398.13;;;13.55;33.98
14383;BME280;7275;50.328;8.720;2023-03-04T10:12:10;100402.47;;;13.57;33.72
14383;BME280;7275;50.328;8.720;2023-03-04T10:14:42;100402.47;;;13.57;33.74
14383;BME280;7275;50.328;8.720;2023-03-04T10:17:15;100393.53;;;13.58;33.84
14383;BME280;7275;50.328;8.720;2023-03-04T10:19:54;100394.50;;;13.57;33.92
14383;BME280;7275;50.328;8.720;2023-03-04T10:22:31;100394.50;;;13.57;33.86
14383;BME280;7275;50.328;8.720;2023-03-04T10:25:09;100390.16;;;13.55;33.81
14383;BME280;7275;50.328;8.720;2023-03-04T10:27:41;100386.53;;;13.56;33.72
14383;BME280;7275;50.328;8.720;2023-03-04T10:30:17;100383.84;;;13.57;33.88
14383;BME280;7275;50.328;8.720;2023-03-04T10:32:47;100391.66;;;13.62;33.96
14383;BME280;7275;50.328;8.720;2023-03-04T10:35:14;100381.03;;;13.62;33.97
14383;BME280;7275;50.328;8.720;2023-03-04T10:37:48;100381.03;;;13.62;33.92
14383;BME280;7275;50.328;8.720;2023-03-04T10:40:18;100391.59;;;13.63;33.94
14383;BME280;7275;50.328;8.720;2023-03-04T10:42:48;100376.56;;;13.62;33.90
14383;BME280;7275;50.328;8.720;2023-03-04T10:45:20;100384.66;;;13.59;33.84
14383;BME280;7275;50.328;8.720;2023-03-04T10:47:52;100379.28;;;13.61;33.84
14383;BME280;7275;50.328;8.720;2023-03-04T10:50:22;100378.22;;;13.65;33.94
14383;BME280;7275;50.328;8.720;2023-03-04T10:52:52;100378.97;;;13.69;33.93
14383;BME280;7275;50.328;8.720;2023-03-04T10:55:22;100372.81;;;13.68;33.77
14383;BME280;7275;50.328;8.720;2023-03-04T10:57:53;100378.88;;;13.72;33.78
14383;BME280;7275;50.328;8.720;2023-03-04T11:00:26;100375.06;;;13.79;33.71
14383;BME280;7275;50.328;8.720;2023-03-04T11:06:14;100357.38;;;13.99;33.77
14383;BME280;7275;50.328;8.720;2023-03-04T11:08:52;100361.31;;;14.11;33.75
14383;BME280;7275;50.328;8.720;2023-03-04T11:11:22;100356.34;;;14.23;33.72
14383;BME280;7275;50.328;8.720;2023-03-04T11:13:51;100359.47;;;14.34;33.60
14383;BME280;7275;50.328;8.720;2023-03-04T11:16:25;100353.03;;;14.40;33.52
14383;BME280;7275;50.328;8.720;2023-03-04T11:18:55;100353.69;;;14.45;33.50
14383;BME280;7275;50.328;8.720;2023-03-04T11:21:28;100344.66;;;14.49;33.50
14383;BME280;7275;50.328;8.720;2023-03-04T11:23:59;100352.22;;;14.58;33.44
14383;BME280;7275;50.328;8.720;2023-03-04T11:26:29;100348.31;;;14.67;33.46
14383;BME280;7275;50.328;8.720;2023-03-04T11:29:02;100349.59;;;14.78;33.37
14383;BME280;7275;50.328;8.720;2023-03-04T11:31:38;100337.66;;;14.87;33.32
14383;BME280;7275;50.328;8.720;2023-03-04T11:34:12;100341.84;;;14.92;33.12
14383;BME280;7275;50.328;8.720;2023-03-04T11:36:50;100344.44;;;14.94;33.11
14383;BME280;7275;50.328;8.720;2023-03-04T11:39:26;100345.38;;;14.93;33.15
14383;BME280;7275;50.328;8.720;2023-03-04T11:41:59;100345.19;;;14.97;33.11
14383;BME280;7275;50.328;8.720;2023-03-04T11:44:29;100337.19;;;14.97;32.98
14383;BME280;7275;50.328;8.720;2023-03-04T11:47:06;100330.84;;;15.00;32.87
14383;BME280;7275;50.328;8.720;2023-03-04T11:50:06;100332.44;;;15.04;32.99
14383;BME280;7275;50.328;8.720;2023-03-04T11:53:09;100324.31;;;15.07;32.92
14383;BME280;7275;50.328;8.720;2023-03-04T11:55:47;100323.16;;;15.12;32.91
14383;BME280;7275;50.328;8.720;2023-03-04T11:59:06;100317.56;;;15.18;32.94
14383;BME280;7275;50.328;8.720;2023-03-04T12:01:42;100304.50;;;15.31;32.79
14383;BME280;7275;50.328;8.720;2023-03-04T12:04:36;100298.59;;;15.45;32.60
14383;BME280;7275;50.328;8.720;2023-03-04T12:07:15;100294.31;;;15.59;32.57
14383;BME280;7275;50.328;8.720;2023-03-04T12:09:56;100296.31;;;15.73;32.47
14383;BME280;7275;50.328;8.720;2023-03-04T12:12:41;100289.22;;;15.90;32.35
14383;BME280;7275;50.328;8.720;2023-03-04T12:15:16;100288.16;;;16.12;32.32
14383;BME280;7275;50.328;8.720;2023-03-04T12:18:01;100282.19;;;16.41;32.15
14383;BME280;7275;50.328;8.720;2023-03-04T12:20:42;100268.84;;;16.75;32.03
14383;BME280;7275;50.328;8.720;2023-03-04T12:23:21;100261.94;;;17.19;31.88
14383;BME280;7275;50.328;8.720;2023-03-04T12:25:58;100260.16;;;17.67;31.64
14383;BME280;7275;50.328;8.720;2023-03-04T12:28:41;100252.41;;;18.07;31.12
14383;BME280;7275;50.328;8.720;2023-03-04T12:31:33;100242.25;;;18.42;31.19
14383;BME280;7275;50.328;8.720;2023-03-04T12:34:37;100240.69;;;18.68;30.77
14383;BME280;7275;50.328;8.720;2023-03-04T12:37:29;100235.53;;;18.79;30.66
14383;BME280;7275;50.328;8.720;2023-03-04T12:40:11;100240.03;;;18.78;30.38
14383;BME280;7275;50.328;8.720;2023-03-04T12:42:54;100233.25;;;18.73;30.42
14383;BME280;7275;50.328;8.720;2023-03-04T12:45:29;100234.38;;;18.69;30.17
14383;BME280;7275;50.328;8.720;2023-03-04T12:48:04;100232.88;;;18.65;30.22
14383;BME280;7275;50.328;8.720;2023-03-04T12:50:40;100221.84;;;18.55;30.13
14383;BME280;7275;50.328;8.720;2023-03-04T12:53:16;100224.47;;;18.41;30.25
14383;BME280;7275;50.328;8.720;2023-03-04T12:55:48;100227.31;;;18.24;30.11
14383;BME280;7275;50.328;8.720;2023-03-04T12:58:18;100225.47;;;18.10;30.14
14383;BME280;7275;50.328;8.720;2023-03-04T13:00:55;100219.22;;;17.96;30.29
14383;BME280;7275;50.328;8.720;2023-03-04T13:03:36;100217.06;;;17.87;30.19
14383;BME280;7275;50.328;8.720;2023-03-04T13:06:11;100212.19;;;17.79;30.31
14383;BME280;7275;50.328;8.720;2023-03-04T13:08:52;100208.81;;;17.76;30.26
14383;BME280;7275;50.328;8.720;2023-03-04T13:14:37;100201.50;;;17.64;30.34
14383;BME280;7275;50.328;8.720;2023-03-04T13:17:40;100203.00;;;17.53;30.42
14383;BME280;7275;50.328;8.720;2023-03-04T13:20:19;100196.16;;;17.48;30.70
14383;BME280;7275;50.328;8.720;2023-03-04T13:22:53;100198.03;;;17.46;30.52
14383;BME280;7275;50.328;8.720;2023-03-04T13:25:39;100193.81;;;17.42;30.62